Time;durP1;ratioP1;P1;durP2;ratioP2;P2;SDS_P1;SDS_P2;PMS_P1;PMS_P2;Temp;Humidity;BMP_temperature;BMP_pressure;BME280_temperature;BME280_humidity;BME280_pressure;Samples;Min_cycle;Max_cycle;Signal;HPM_P1;HPM_P2
2024/04/24 00:00:08;;;;;;;1.20;1.20;;;;;;;-2.59;100.00;98165.25;6349281;22;20003;-89
2024/04/24 00:02:40;;;;;;;1.20;1.20;;;;;;;-2.75;100.00;98167.59;6293775;22;19999;-89
2024/04/24 00:05:05;;;;;;;1.10;1.10;;;;;;;-2.62;100.00;98159.84;6331695;22;20112;-91
2024/04/24 00:07:31;;;;;;;1.10;1.10;;;;;;;-2.57;100.00;98155.84;6329814;22;20318;-90
2024/04/24 00:09:57;;;;;;;1.10;1.10;;;;;;;-2.79;100.00;98155.13;6332545;22;20003;-89
2024/04/24 00:12:22;;;;;;;1.10;1.10;;;;;;;-2.39;100.00;98153.63;6329757;22;20003;-90
2024/04/24 00:14:48;;;;;;;1.10;1.10;;;;;;;-2.55;100.00;98151.63;6371133;22;20123;-91
2024/04/24 00:17:13;;;;;;;1.10;1.10;;;;;;;-2.78;100.00;98149.09;6382425;22;20008;-91
2024/04/24 00:19:39;;;;;;;1.10;1.10;;;;;;;-2.98;100.00;98145.97;6342667;22;20010;-91
2024/04/24 00:22:04;;;;;;;1.20;1.20;;;;;;;-2.87;100.00;98146.75;6293055;22;20096;-91
2024/04/24 00:24:30;;;;;;;1.20;1.20;;;;;;;-3.00;100.00;98149.28;6331168;22;19999;-91
2024/04/24 00:26:55;;;;;;;1.10;1.10;;;;;;;-2.89;100.00;98151.84;6332378;22;20010;-91
2024/04/24 00:29:24;;;;;;;1.10;1.10;;;;;;;-2.71;100.00;98140.91;6331124;22;20003;-92
2024/04/24 00:31:53;;;;;;;1.13;1.13;;;;;;;-2.49;100.00;98138.09;6296814;22;19999;-91
2024/04/24 00:34:18;;;;;;;1.10;1.10;;;;;;;-2.60;100.00;98134.72;6303394;22;20006;-92
2024/04/24 00:36:44;;;;;;;1.20;1.20;;;;;;;-2.32;100.00;98132.34;6346075;22;20066;-93
2024/04/24 00:39:10;;;;;;;1.20;1.20;;;;;;;-2.38;100.00;98137.13;6381085;22;20013;-91
2024/04/24 00:41:35;;;;;;;1.20;1.20;;;;;;;-2.50;100.00;98131.97;6332777;22;20421;-91
2024/04/24 00:44:01;;;;;;;1.10;1.10;;;;;;;-2.84;100.00;98131.28;6331121;22;19999;-91
2024/04/24 00:46:28;;;;;;;1.17;1.17;;;;;;;-2.80;100.00;98140.25;6290767;22;20003;-92
2024/04/24 00:48:56;;;;;;;1.20;1.20;;;;;;;-2.53;100.00;98137.00;6328925;22;20003;-92
2024/04/24 00:51:23;;;;;;;1.20;1.20;;;;;;;-2.69;100.00;98127.16;6289356;22;20083;-91
2024/04/24 00:53:49;;;;;;;1.20;1.20;;;;;;;-2.91;100.00;98124.75;6329863;22;20003;-91
2024/04/24 00:56:15;;;;;;;1.20;1.20;;;;;;;-2.61;100.00;98125.09;6329828;22;19999;-91
2024/04/24 00:58:41;;;;;;;1.10;1.10;;;;;;;-2.52;100.00;98117.91;6330058;22;20386;-91
2024/04/24 01:01:08;;;;;;;1.20;1.20;;;;;;;-2.87;100.00;98121.56;6374577;22;20000;-91
2024/04/24 01:03:34;;;;;;;1.20;1.20;;;;;;;-2.84;100.00;98118.25;6333060;22;20011;-90
2024/04/24 01:05:59;;;;;;;1.10;1.10;;;;;;;-2.93;100.00;98125.41;6374861;22;20100;-91
2024/04/24 01:08:25;;;;;;;1.10;1.10;;;;;;;-2.85;100.00;98124.28;6332641;22;20000;-90
2024/04/24 01:10:59;;;;;;;1.10;1.10;;;;;;;-2.89;100.00;98117.00;6374295;22;20003;-91
2024/04/24 01:13:26;;;;;;;1.20;1.20;;;;;;;-3.25;100.00;98128.34;6377964;22;19999;-90
2024/04/24 01:16:03;;;;;;;1.20;1.20;;;;;;;-2.93;100.00;98121.09;6382540;22;20014;-89
2024/04/24 01:18:31;;;;;;;1.20;1.20;;;;;;;-3.13;100.00;98114.47;6347580;22;20279;-91
2024/04/24 01:20:59;;;;;;;1.10;1.10;;;;;;;-2.95;100.00;98109.66;6380705;22;19999;-91
2024/04/24 01:24:00;;;;;;;1.20;1.20;;;;;;;-3.16;100.00;98109.06;6382946;22;19999;-91
2024/04/24 01:26:45;;;;;;;1.10;1.10;;;;;;;-3.02;100.00;98107.41;6339698;22;19995;-92
2024/04/24 01:29:11;;;;;;;1.10;1.10;;;;;;;-2.77;100.00;98109.16;6338365;22;20003;-91
2024/04/24 01:31:36;;;;;;;1.20;1.20;;;;;;;-2.91;100.00;98103.88;6339038;22;20038;-90
2024/04/24 01:34:02;;;;;;;1.20;1.20;;;;;;;-3.10;100.00;98108.59;6339070;22;19999;-91
2024/04/24 01:36:27;;;;;;;1.10;1.10;;;;;;;-2.88;100.00;98105.78;6338721;22;19995;-91
2024/04/24 01:38:53;;;;;;;1.20;1.20;;;;;;;-3.02;100.00;98107.41;6339713;22;20011;-91
2024/04/24 01:41:18;;;;;;;1.20;1.20;;;;;;;-3.24;100.00;98106.69;6298491;22;20039;-90
2024/04/24 01:43:43;;;;;;;1.10;1.10;;;;;;;-3.29;100.00;98108.06;6298031;22;20074;-90
2024/04/24 01:46:09;;;;;;;1.10;1.10;;;;;;;-2.89;100.00;98099.66;6333840;22;20391;-90
2024/04/24 01:48:34;;;;;;;1.15;1.15;;;;;;;-2.95;100.00;98099.22;6293372;22;20593;-90
2024/04/24 01:51:00;;;;;;;1.20;1.20;;;;;;;-2.90;100.00;98100.44;6375999;22;20014;-91
2024/04/24 01:53:25;;;;;;;1.20;1.20;;;;;;;-2.53;100.00;98097.81;6333570;22;20061;-91
2024/04/24 01:55:51;;;;;;;1.20;1.20;;;;;;;-2.44;100.00;98095.84;6332943;22;20078;-89
2024/04/24 01:58:16;;;;;;;1.20;1.20;;;;;;;-2.55;100.00;98098.50;6333646;22;20074;-90
2024/04/24 02:00:41;;;;;;;1.10;1.10;;;;;;;-2.59;100.00;98094.75;6293376;22;20420;-90
2024/04/24 02:03:07;;;;;;;1.20;1.20;;;;;;;-2.53;100.00;98092.59;6333177;22;20071;-91
2024/04/24 02:05:33;;;;;;;1.10;1.10;;;;;;;-2.38;100.00;98084.91;6290532;22;20018;-90
2024/04/24 02:07:59;;;;;;;1.20;1.20;;;;;;;-2.34;100.00;98089.53;6331873;22;20039;-90
2024/04/24 02:10:24;;;;;;;1.10;1.10;;;;;;;-2.02;100.00;98083.84;6331765;22;20238;-90
2024/04/24 02:12:50;;;;;;;1.10;1.10;;;;;;;-1.97;100.00;98086.78;6329886;22;20014;-90
2024/04/24 02:15:15;;;;;;;1.20;1.20;;;;;;;-1.91;100.00;98084.59;6336726;22;20517;-91
2024/04/24 02:17:41;;;;;;;1.20;1.20;;;;;;;-1.73;100.00;98080.56;6334112;22;20003;-92
2024/04/24 02:20:06;;;;;;;1.10;1.10;;;;;;;-1.61;100.00;98076.16;6329571;22;20011;-90
2024/04/24 02:22:32;;;;;;;1.10;1.10;;;;;;;-1.54;100.00;98074.81;6328777;22;19996;-90
2024/04/24 02:27:41;;;;;;;1.10;1.10;;;;;;;-1.56;100.00;98072.13;6327154;22;20438;-90
2024/04/24 02:30:07;;;;;;;1.10;1.10;;;;;;;-1.51;100.00;98076.75;6331001;22;19995;-91
2024/04/24 02:32:33;;;;;;;1.10;1.10;;;;;;;-1.67;100.00;98069.63;6382774;22;19996;-90
2024/04/24 02:34:58;;;;;;;1.10;1.10;;;;;;;-1.83;100.00;98063.34;6304083;22;20110;-91
2024/04/24 02:37:24;;;;;;;1.10;1.10;;;;;;;-1.92;100.00;98062.75;6305515;22;20006;-91
2024/04/24 02:39:49;;;;;;;1.10;1.10;;;;;;;-2.03;100.00;98066.38;6301064;22;19995;-92
2024/04/24 02:42:15;;;;;;;1.10;1.10;;;;;;;-2.14;100.00;98069.97;6383785;22;20011;-92
2024/04/24 02:44:41;;;;;;;1.10;1.10;;;;;;;-2.41;100.00;98063.78;6300971;22;20004;-90
2024/04/24 02:47:06;;;;;;;1.10;1.10;;;;;;;-2.56;100.00;98058.41;6369737;22;20424;-92
2024/04/24 02:49:32;;;;;;;1.10;1.10;;;;;;;-2.46;100.00;98054.72;6370266;22;20052;-91
2024/04/24 02:51:57;;;;;;;1.10;1.10;;;;;;;-2.44;100.00;98048.81;6370049;22;20014;-91
2024/04/24 02:54:23;;;;;;;1.10;1.10;;;;;;;-2.64;100.00;98057.88;6289330;22;20017;-91
2024/04/24 02:56:48;;;;;;;1.10;1.10;;;;;;;-2.72;100.00;98050.34;6291031;22;20085;-90
2024/04/24 02:59:13;;;;;;;1.10;1.10;;;;;;;-2.70;100.00;98053.94;6374253;22;20078;-90
2024/04/24 03:01:39;;;;;;;1.10;1.10;;;;;;;-2.82;100.00;98050.50;6374694;22;19999;-90
2024/04/24 03:04:04;;;;;;;1.15;1.15;;;;;;;-2.85;100.00;98054.69;6330326;22;20630;-90
2024/04/24 03:06:30;;;;;;;1.10;1.10;;;;;;;-2.69;100.00;98045.31;6373248;22;20455;-90
2024/04/24 03:08:55;;;;;;;1.20;1.20;;;;;;;-2.99;100.00;98044.09;6289407;22;20649;-91
2024/04/24 03:11:21;;;;;;;1.10;1.10;;;;;;;-3.11;100.00;98044.16;6371821;22;20015;-90
2024/04/24 03:13:46;;;;;;;1.10;1.10;;;;;;;-3.05;100.00;98034.16;6329876;22;20003;-91
2024/04/24 03:16:12;;;;;;;1.20;1.20;;;;;;;-3.03;100.00;98034.25;6372259;22;20006;-91
2024/04/24 03:18:37;;;;;;;1.20;1.20;;;;;;;-3.00;100.00;98035.38;6331276;22;20010;-90
2024/04/24 03:21:03;;;;;;;1.20;1.20;;;;;;;-2.82;100.00;98029.63;6290138;22;19999;-91
2024/04/24 03:23:28;;;;;;;1.10;1.10;;;;;;;-2.95;100.00;98018.34;6333012;22;19999;-91
2024/04/24 03:25:54;;;;;;;1.20;1.20;;;;;;;-3.22;100.00;98022.50;6373845;22;20370;-91
2024/04/24 03:28:19;;;;;;;1.20;1.20;;;;;;;-2.99;100.00;98033.66;6373579;22;20007;-91
2024/04/24 03:30:44;;;;;;;1.10;1.10;;;;;;;-3.30;100.00;98021.09;6290423;22;19999;-90
2024/04/24 03:33:10;;;;;;;1.20;1.20;;;;;;;-3.51;100.00;98024.75;6329848;22;20505;-91
2024/04/24 03:35:35;;;;;;;1.10;1.10;;;;;;;-3.50;100.00;98022.25;6374587;22;20909;-91
2024/04/24 03:38:01;;;;;;;1.10;1.10;;;;;;;-3.64;100.00;98026.50;6292581;22;20378;-91
2024/04/24 03:40:26;;;;;;;1.20;1.20;;;;;;;-3.61;100.00;98017.97;6289965;22;20367;-90
2024/04/24 03:42:52;;;;;;;1.20;1.20;;;;;;;-3.39;100.00;98010.91;6294321;22;20006;-91
2024/04/24 03:45:17;;;;;;;1.20;1.20;;;;;;;-3.52;100.00;98017.75;6345853;22;20013;-92
2024/04/24 03:47:42;;;;;;;1.10;1.10;;;;;;;-3.50;100.00;98014.44;6311526;22;19996;-91
2024/04/24 03:50:08;;;;;;;1.10;1.10;;;;;;;-3.56;100.00;98015.69;6349587;22;19987;-91
2024/04/24 03:52:33;;;;;;;1.10;1.10;;;;;;;-3.54;100.00;98020.25;6309899;22;20023;-91
2024/04/24 03:54:59;;;;;;;1.20;1.20;;;;;;;-3.62;100.00;98013.56;6373201;22;20007;-91
2024/04/24 03:57:24;;;;;;;1.20;1.20;;;;;;;-3.44;100.00;98012.28;6371605;22;20079;-90
2024/04/24 03:59:50;;;;;;;1.20;1.20;;;;;;;-3.44;100.00;98012.28;6291620;22;19995;-90
2024/04/24 04:02:15;;;;;;;1.20;1.20;;;;;;;-3.34;100.00;98013.84;6297455;22;20410;-91
2024/04/24 04:04:41;;;;;;;1.10;1.10;;;;;;;-3.26;100.00;98006.53;6333311;22;20006;-91
2024/04/24 04:07:06;;;;;;;1.20;1.20;;;;;;;-3.02;100.00;98007.34;6291296;22;19999;-89
2024/04/24 04:09:32;;;;;;;1.10;1.10;;;;;;;-3.17;100.00;98007.19;6331024;22;20018;-92
2024/04/24 04:11:57;;;;;;;1.20;1.20;;;;;;;-2.97;100.00;98008.56;6330082;22;20085;-91
2024/04/24 04:14:22;;;;;;;1.20;1.20;;;;;;;-2.82;100.00;98008.75;6329448;22;20014;-92
2024/04/24 04:16:48;;;;;;;1.20;1.20;;;;;;;-2.77;100.00;98020.41;6327931;22;20018;-89
2024/04/24 04:19:13;;;;;;;1.10;1.10;;;;;;;-2.41;100.00;98016.78;6328140;22;19999;-90
2024/04/24 04:21:39;;;;;;;1.10;1.10;;;;;;;-2.07;100.00;98012.09;6288362;22;20018;-90
2024/04/24 04:24:05;;;;;;;1.20;1.20;;;;;;;-1.96;100.00;98011.09;6330689;22;19999;-90
2024/04/24 04:26:30;;;;;;;1.10;1.10;;;;;;;-2.00;100.00;98014.31;6329595;22;20415;-90
2024/04/24 04:28:56;;;;;;;1.13;1.13;;;;;;;-1.94;100.00;98009.47;6328165;22;20011;-90
2024/04/24 04:31:21;;;;;;;1.10;1.10;;;;;;;-1.89;100.00;98009.78;6329040;22;20015;-90
2024/04/24 04:33:47;;;;;;;1.20;1.20;;;;;;;-1.90;100.00;98011.50;6371114;22;20014;-89
2024/04/24 04:36:12;;;;;;;1.10;1.10;;;;;;;-1.90;100.00;98002.75;6328517;22;20010;-89
2024/04/24 04:38:38;;;;;;;1.10;1.10;;;;;;;-1.91;100.00;98007.06;6325314;22;20014;-90
2024/04/24 04:41:04;;;;;;;1.20;1.20;;;;;;;-1.92;100.00;98007.84;6325800;22;20318;-90
2024/04/24 04:43:30;;;;;;;1.10;1.10;;;;;;;-2.02;99.53;98000.22;6325547;22;20043;-90
2024/04/24 04:45:56;;;;;;;1.20;1.20;;;;;;;-2.17;99.53;97996.59;6326719;22;20299;-91
2024/04/24 04:48:22;;;;;;;1.20;1.20;;;;;;;-2.22;100.00;97998.00;6370745;22;19999;-91
2024/04/24 04:50:47;;;;;;;1.20;1.20;;;;;;;-2.35;100.00;97996.28;6330417;22;20014;-91
2024/04/24 04:53:13;;;;;;;1.10;1.10;;;;;;;-2.22;100.00;97992.78;6290921;22;20014;-91
2024/04/24 04:55:39;;;;;;;1.10;1.10;;;;;;;-2.17;99.95;98002.72;6375118;22;20007;-89
2024/04/24 04:58:04;;;;;;;1.10;1.10;;;;;;;-2.29;99.89;98001.03;6374897;22;19999;-90
2024/04/24 05:00:30;;;;;;;1.10;1.10;;;;;;;-2.02;99.52;97992.38;6290307;22;20060;-90
2024/04/24 05:02:56;;;;;;;1.23;1.23;;;;;;;-2.02;99.09;97995.00;6291145;22;19999;-89
2024/04/24 05:05:23;;;;;;;1.10;1.10;;;;;;;-1.79;99.66;97990.38;6292102;22;20018;-90
2024/04/24 05:07:48;;;;;;;1.10;1.10;;;;;;;-1.66;98.95;97995.59;6333559;22;20027;-91
2024/04/24 05:10:14;;;;;;;1.10;1.10;;;;;;;-1.35;98.30;97994.09;6333524;22;19999;-90
2024/04/24 05:12:39;;;;;;;1.10;1.10;;;;;;;-1.19;96.94;97989.84;6334885;22;20014;-90
2024/04/24 05:15:05;;;;;;;1.10;1.10;;;;;;;-1.02;96.53;97985.66;6395525;22;20023;-90
2024/04/24 05:17:32;;;;;;;1.10;1.10;;;;;;;-0.86;95.92;97986.69;6314650;22;20003;-90
2024/04/24 05:19:58;;;;;;;1.10;1.10;;;;;;;-0.61;95.43;97985.56;6314506;22;20011;-90
2024/04/24 05:22:25;;;;;;;1.10;1.10;;;;;;;-0.40;94.77;97973.72;6354239;22;20002;-89
2024/04/24 05:24:51;;;;;;;1.10;1.10;;;;;;;-0.12;93.75;97967.47;6397113;22;20027;-89
2024/04/24 05:30:01;;;;;;;1.10;1.10;;;;;;;-0.55;94.24;97970.19;6353620;22;19999;-89
2024/04/24 05:32:26;;;;;;;1.10;1.10;;;;;;;-0.81;95.21;97961.69;6395503;22;19991;-89
2024/04/24 05:34:52;;;;;;;1.10;1.10;;;;;;;-0.79;95.20;97961.78;6314349;22;20238;-89
2024/04/24 05:37:17;;;;;;;1.10;1.10;;;;;;;-0.87;95.56;97957.78;6392438;22;20006;-88
2024/04/24 05:39:43;;;;;;;1.10;1.10;;;;;;;-0.87;95.79;97953.44;6392946;22;20003;-88
2024/04/24 05:42:08;;;;;;;1.10;1.10;;;;;;;-0.84;95.41;97953.63;6393978;22;20009;-90
2024/04/24 05:44:34;;;;;;;1.00;1.00;;;;;;;-0.95;95.23;97946.84;6305118;22;20002;-89
2024/04/24 05:47:03;;;;;;;1.10;1.10;;;;;;;-0.94;96.13;97948.66;6337326;22;20074;-91
2024/04/24 05:49:28;;;;;;;;;;;;;;;-0.60;95.23;97937.59;6335995;22;19999;-91
2024/04/24 05:51:53;;;;;;;1.10;1.10;;;;;;;-0.20;95.18;97937.28;6378663;22;19999;-91
2024/04/24 05:54:19;;;;;;;1.10;1.10;;;;;;;0.08;93.81;97939.78;6332616;22;20035;-92
2024/04/24 05:56:45;;;;;;;1.10;1.10;;;;;;;0.20;92.79;97946.63;6294663;22;20079;-91
2024/04/24 05:59:10;;;;;;;1.10;1.10;;;;;;;0.53;91.07;97936.22;6295580;22;20012;-92
2024/04/24 06:01:36;;;;;;;1.10;1.10;;;;;;;0.64;90.68;97932.44;6331848;22;19999;-92
2024/04/24 06:04:01;;;;;;;1.10;1.10;;;;;;;0.99;88.94;97934.31;6289186;22;19999;-91
2024/04/24 06:06:26;;;;;;;1.10;1.10;;;;;;;1.16;89.17;97937.88;6370634;22;20278;-90
2024/04/24 06:08:52;;;;;;;1.10;1.10;;;;;;;1.64;87.37;97938.59;6329342;22;20595;-90
2024/04/24 06:11:17;;;;;;;1.10;1.10;;;;;;;1.83;86.82;97931.63;6291414;22;20061;-90
2024/04/24 06:13:43;;;;;;;1.00;1.00;;;;;;;2.11;86.52;97929.53;6331454;22;20331;-91
2024/04/24 06:16:10;;;;;;;0.90;0.90;;;;;;;2.26;85.71;97925.03;6334232;22;19996;-91
2024/04/24 06:18:35;;;;;;;1.10;1.10;;;;;;;2.61;85.67;97928.41;6270110;22;20049;-91
2024/04/24 06:21:01;;;;;;;1.00;1.00;;;;;;;2.91;86.13;97939.47;6352168;22;20031;-91
2024/04/24 06:23:26;;;;;;;1.00;1.00;;;;;;;3.43;84.40;97931.28;6395249;22;19999;-90
2024/04/24 06:25:52;;;;;;;0.98;0.98;;;;;;;3.88;81.66;97917.34;6394205;22;19987;-91
2024/04/24 06:28:17;;;;;;;0.90;0.90;;;;;;;4.25;80.63;97923.31;6394488;22;20702;-92
2024/04/24 06:30:43;;;;;;;1.00;1.00;;;;;;;4.82;82.82;97920.25;6396125;22;20003;-92
2024/04/24 06:33:08;;;;;;;0.90;0.90;;;;;;;5.08;79.40;97914.22;6396052;22;19987;-93
2024/04/24 06:35:34;;;;;;;0.90;0.90;;;;;;;5.79;76.39;97909.69;6314139;22;20011;-93
2024/04/24 06:38:00;;;;;;;0.90;0.90;;;;;;;6.07;71.55;97914.22;6354918;22;20044;-93
2024/04/24 06:40:25;;;;;;;0.90;0.90;;;;;;;6.26;70.85;97913.09;6353022;22;20179;-93
2024/04/24 06:42:52;;;;;;;0.90;0.90;;;;;;;6.47;68.28;97920.84;6311960;22;20011;-93
2024/04/24 06:45:17;;;;;;;0.80;0.80;;;;;;;6.57;68.08;97927.34;6352376;22;19991;-92
2024/04/24 06:47:44;;;;;;;0.80;0.80;;;;;;;6.20;68.49;97925.25;6350521;22;19987;-91
2024/04/24 06:50:09;;;;;;;0.80;0.80;;;;;;;5.47;69.78;97934.16;6301835;22;20097;-90
2024/04/24 06:52:35;;;;;;;0.80;0.80;;;;;;;5.17;71.81;97926.88;6339141;22;20465;-91
2024/04/24 06:55:01;;;;;;;0.80;0.80;;;;;;;5.38;73.28;97925.03;6374598;22;20027;-91
2024/04/24 06:57:27;;;;;;;0.82;0.82;;;;;;;5.43;66.85;97916.38;6291467;22;20010;-91
2024/04/24 06:59:52;;;;;;;0.90;0.90;;;;;;;4.99;67.20;97921.81;6331566;22;20035;-91
2024/04/24 07:02:18;;;;;;;0.90;0.90;;;;;;;5.20;67.78;97920.81;6332073;22;19995;-91
2024/04/24 07:04:45;;;;;;;0.90;0.90;;;;;;;5.20;66.82;97913.78;6373320;22;20074;-91
2024/04/24 07:07:10;;;;;;;0.90;0.90;;;;;;;5.64;66.20;97910.06;6332236;22;20008;-90
2024/04/24 07:09:36;;;;;;;0.80;0.80;;;;;;;5.86;66.28;97908.19;6331541;22;19999;-91
2024/04/24 07:12:01;;;;;;;0.80;0.80;;;;;;;6.17;65.54;97904.84;6331379;22;20027;-90
2024/04/24 07:14:27;;;;;;;0.80;0.80;;;;;;;6.34;64.99;97911.59;6291435;22;20051;-91
2024/04/24 07:16:52;;;;;;;0.80;0.80;;;;;;;6.29;63.33;97904.34;6331238;22;20457;-91
2024/04/24 07:19:18;;;;;;;0.85;0.85;;;;;;;6.62;63.36;97905.41;6290333;22;20006;-91
2024/04/24 07:21:43;;;;;;;0.80;0.80;;;;;;;6.86;61.94;97899.97;6373495;22;20051;-90
2024/04/24 07:24:09;;;;;;;0.90;0.90;;;;;;;6.92;61.54;97888.66;6330855;22;20011;-92
2024/04/24 07:26:34;;;;;;;0.80;0.80;;;;;;;7.33;60.18;97887.19;6290811;22;19992;-91
2024/04/24 07:29:00;;;;;;;0.80;0.80;;;;;;;7.13;59.32;97893.66;6373542;22;20003;-91
2024/04/24 07:31:25;;;;;;;0.80;0.80;;;;;;;6.85;59.59;97892.88;6329580;22;19999;-90
2024/04/24 07:33:51;;;;;;;0.80;0.80;;;;;;;6.42;60.87;97891.56;6372435;22;20050;-91
2024/04/24 07:36:16;;;;;;;0.80;0.80;;;;;;;7.04;59.05;97891.66;6373082;22;20478;-90
2024/04/24 07:38:43;;;;;;;0.80;0.80;;;;;;;7.33;58.59;97895.16;6371370;22;20018;-90
2024/04/24 07:41:08;;;;;;;0.80;0.80;;;;;;;6.99;60.09;97884.41;6290296;22;20003;-89
2024/04/24 07:43:34;;;;;;;0.80;0.80;;;;;;;7.13;60.29;97891.91;6290532;22;20007;-92
2024/04/24 07:46:00;;;;;;;0.80;0.80;;;;;;;7.02;60.40;97889.81;6291413;22;20465;-90
2024/04/24 07:48:26;;;;;;;0.80;0.80;;;;;;;6.57;60.60;97890.22;6331612;22;20031;-90
2024/04/24 07:50:51;;;;;;;0.80;0.80;;;;;;;6.07;62.41;97892.13;6290868;22;19999;-90
2024/04/24 07:53:17;;;;;;;0.80;0.80;;;;;;;5.68;63.53;97896.97;6290938;22;20498;-90
2024/04/24 07:55:42;;;;;;;0.80;0.80;;;;;;;5.38;66.39;97909.16;6373346;22;20450;-91
2024/04/24 07:58:08;;;;;;;0.90;0.90;;;;;;;4.87;69.72;97914.31;6329831;22;20003;-91
2024/04/24 08:00:33;;;;;;;0.95;0.95;;;;;;;4.48;72.57;97907.50;6328916;22;20051;-90
2024/04/24 08:03:01;;;;;;;0.90;0.90;;;;;;;4.25;73.04;97918.03;6288385;22;20014;-90
2024/04/24 08:05:27;;;;;;;1.00;1.00;;;;;;;3.97;76.77;97915.09;6328058;22;20003;-91
2024/04/24 08:07:52;;;;;;;1.00;1.00;;;;;;;3.92;76.02;97919.28;6375466;22;20403;-90
2024/04/24 08:10:18;;;;;;;1.00;1.00;;;;;;;3.90;78.59;97918.31;6373047;22;20010;-89
2024/04/24 08:12:43;;;;;;;1.10;1.10;;;;;;;3.99;76.50;97916.06;6332904;22;20019;-90
2024/04/24 08:15:09;;;;;;;1.00;1.00;;;;;;;4.09;78.79;97911.22;6333183;22;20011;-90
2024/04/24 08:17:35;;;;;;;1.00;1.00;;;;;;;4.24;76.72;97903.03;6330746;22;20061;-90
2024/04/24 08:20:01;;;;;;;1.00;1.00;;;;;;;4.18;78.71;97902.78;6373444;22;20023;-91
2024/04/24 08:22:26;;;;;;;0.98;0.98;;;;;;;4.44;77.16;97890.63;6374157;22;19999;-91
2024/04/24 08:24:52;;;;;;;1.00;1.00;;;;;;;4.42;78.50;97894.06;6329460;22;20017;-90
2024/04/24 08:27:17;;;;;;;1.00;1.00;;;;;;;4.62;76.43;97895.72;6331383;22;20022;-90
2024/04/24 08:29:43;;;;;;;1.00;1.00;;;;;;;4.31;77.74;97897.16;6374054;22;20011;-90
2024/04/24 08:32:08;;;;;;;1.00;1.00;;;;;;;4.29;78.39;97896.19;6291596;22;20018;-90
2024/04/24 08:34:34;;;;;;;1.00;1.00;;;;;;;4.77;78.09;97893.66;6330042;22;19999;-90
2024/04/24 08:36:59;;;;;;;0.90;0.90;;;;;;;4.99;75.02;97891.84;6331269;22;19999;-90
2024/04/24 08:39:24;;;;;;;1.00;1.00;;;;;;;4.60;75.44;97886.84;6331600;22;20009;-90
2024/04/24 08:41:53;;;;;;;1.00;1.00;;;;;;;4.87;74.84;97882.59;6330599;22;20120;-89
2024/04/24 08:44:19;;;;;;;1.00;1.00;;;;;;;5.34;73.77;97883.44;6369584;22;20031;-90
2024/04/24 08:46:45;;;;;;;0.90;0.90;;;;;;;5.78;71.71;97869.94;6292562;22;20018;-90
2024/04/24 08:49:11;;;;;;;0.90;0.90;;;;;;;6.29;70.00;97875.22;6332059;22;20143;-91
2024/04/24 08:51:39;;;;;;;0.90;0.90;;;;;;;6.13;68.56;97877.38;6375412;22;20047;-90
2024/04/24 08:54:10;;;;;;;0.90;0.90;;;;;;;5.74;68.24;97878.63;6333567;22;20007;-90
2024/04/24 08:56:43;;;;;;;0.88;0.88;;;;;;;5.48;68.71;97873.34;6292724;22;20039;-91
2024/04/24 08:59:21;;;;;;;0.90;0.90;;;;;;;5.52;69.01;97879.66;6292053;22;20019;-90
2024/04/24 09:01:57;;;;;;;0.70;0.70;;;;;;;5.25;69.61;97871.63;6374860;22;20083;-90
2024/04/24 09:04:25;;;;;;;0.90;0.90;;;;;;;5.03;70.55;97877.88;6332348;22;20039;-89
2024/04/24 09:06:51;;;;;;;0.90;0.90;;;;;;;5.27;73.03;97867.28;6375121;22;20239;-91
2024/04/24 09:09:17;;;;;;;0.90;0.90;;;;;;;5.26;71.83;97866.38;6374909;22;20014;-91
2024/04/24 09:11:42;;;;;;;0.80;0.80;;;;;;;5.31;71.11;97859.50;6374691;22;19999;-91
2024/04/24 09:14:08;;;;;;;0.80;0.80;;;;;;;5.46;70.69;97861.84;6375374;22;20000;-90
2024/04/24 09:16:36;;;;;;;0.80;0.80;;;;;;;5.61;71.14;97861.47;6332600;22;20003;-89
2024/04/24 09:19:03;;;;;;;0.80;0.80;;;;;;;5.75;68.92;97851.31;6378445;22;20006;-90
2024/04/24 09:21:30;;;;;;;0.90;0.90;;;;;;;5.88;69.03;97851.78;6336762;22;20019;-90
2024/04/24 09:23:59;;;;;;;0.80;0.80;;;;;;;5.87;70.05;97846.44;6335686;22;20015;-91
2024/04/24 09:26:26;;;;;;;0.80;0.80;;;;;;;6.17;70.43;97854.50;6337366;22;20039;-90
2024/04/24 09:28:52;;;;;;;0.70;0.70;;;;;;;6.10;69.76;97848.13;6378163;22;20013;-92
2024/04/24 09:31:18;;;;;;;0.80;0.80;;;;;;;5.91;70.17;97848.34;6376458;22;20003;-90
2024/04/24 09:33:45;;;;;;;0.80;0.80;;;;;;;5.94;70.29;97850.22;6332301;22;20015;-90
2024/04/24 09:36:11;;;;;;;0.90;0.90;;;;;;;5.82;70.77;97846.28;6334492;22;20610;-90
2024/04/24 09:38:38;;;;;;;0.80;0.80;;;;;;;5.73;71.87;97853.91;6336742;22;20014;-90
2024/04/24 09:41:05;;;;;;;0.90;0.90;;;;;;;5.73;73.39;97850.38;6295593;22;20373;-91
2024/04/24 09:43:30;;;;;;;0.90;0.90;;;;;;;5.63;74.00;97852.72;6295379;22;20003;-94
2024/04/24 09:45:59;;;;;;;0.90;0.90;;;;;;;5.52;73.71;97854.09;6378804;22;20033;-90
2024/04/24 09:48:24;;;;;;;0.90;0.90;;;;;;;5.38;75.13;97858.00;6378944;22;20007;-92
2024/04/24 09:50:51;;;;;;;0.90;0.90;;;;;;;5.20;74.79;97849.41;6338617;22;20022;-91
2024/04/24 09:53:18;;;;;;;1.00;1.00;;;;;;;5.33;75.25;97856.94;6379616;22;20011;-91
2024/04/24 09:55:59;;;;;;;1.00;1.00;;;;;;;5.10;74.95;97851.72;6296647;22;20010;-92
2024/04/24 09:58:26;;;;;;;1.00;1.00;;;;;;;5.36;75.04;97843.81;6338051;22;20018;-92
2024/04/24 10:00:53;;;;;;;1.00;1.00;;;;;;;5.57;74.08;97841.91;6336551;22;20003;-92
2024/04/24 10:03:20;;;;;;;1.00;1.00;;;;;;;5.79;73.88;97842.63;6338478;22;20003;-92
2024/04/24 10:05:53;;;;;;;0.93;0.93;;;;;;;5.96;73.37;97848.53;6337792;22;20068;-92
2024/04/24 10:08:24;;;;;;;1.00;1.00;;;;;;;5.68;74.10;97846.69;6378868;22;20009;-92
2024/04/24 10:10:54;;;;;;;0.90;0.90;;;;;;;5.43;76.17;97847.59;6380952;22;20057;-90
2024/04/24 10:13:22;;;;;;;0.90;0.90;;;;;;;5.30;76.97;97846.25;6296912;22;19999;-93
2024/04/24 10:15:57;;;;;;;0.90;0.90;;;;;;;4.97;78.09;97856.50;6338883;22;20003;-93
2024/04/24 10:18:24;;;;;;;0.90;0.90;;;;;;;4.75;78.76;97854.81;6381795;22;20310;-93
2024/04/24 10:20:51;;;;;;;0.90;0.90;;;;;;;4.63;78.90;97855.25;6381914;22;20021;-92
2024/04/24 10:23:20;;;;;;;1.00;1.00;;;;;;;4.73;79.78;97852.09;6380809;22;19995;-91
2024/04/24 10:25:47;;;;;;;1.00;1.00;;;;;;;4.55;81.37;97859.31;6337691;22;19999;-91
2024/04/24 10:28:13;;;;;;;;;;;;;;;4.41;80.74;97853.53;6380580;22;20030;-91
2024/04/24 10:30:40;;;;;;;1.00;1.00;;;;;;;4.23;81.47;97847.53;6298731;22;19924;-93
2024/04/24 10:33:08;;;;;;;1.10;1.10;;;;;;;4.44;82.57;97852.75;6297995;22;20006;-92
2024/04/24 10:35:35;;;;;;;1.00;1.00;;;;;;;4.68;81.64;97851.03;6380615;22;19999;-91
2024/04/24 10:38:04;;;;;;;1.10;1.10;;;;;;;4.79;80.61;97849.72;6297226;22;20048;-91
2024/04/24 10:40:30;;;;;;;0.90;0.90;;;;;;;4.73;80.51;97852.09;6378603;22;20048;-92
2024/04/24 10:42:57;;;;;;;0.90;0.90;;;;;;;4.36;80.95;97849.81;6336508;22;20023;-91
2024/04/24 10:45:39;;;;;;;1.00;1.00;;;;;;;4.58;83.13;97840.97;6343301;22;20047;-93
2024/04/24 10:48:06;;;;;;;1.00;1.00;;;;;;;4.69;84.45;97844.91;6351069;22;20013;-93
2024/04/24 10:50:35;;;;;;;1.00;1.00;;;;;;;4.64;82.85;97843.81;6297561;22;20006;-92
2024/04/24 10:53:02;;;;;;;1.00;1.00;;;;;;;4.39;84.75;97842.00;6296592;22;19999;-90
2024/04/24 10:55:28;;;;;;;;;;;;;;;4.50;84.45;97834.47;6337229;22;19999;-90
2024/04/24 10:57:55;;;;;;;1.00;1.00;;;;;;;4.33;85.29;97834.75;6336511;22;19924;-91
2024/04/24 11:00:22;;;;;;;1.00;1.00;;;;;;;4.41;84.16;97832.41;6380282;22;20004;-91
2024/04/24 11:02:51;;;;;;;1.00;1.00;;;;;;;4.17;84.47;97842.91;6336521;22;19995;-91
2024/04/24 11:05:18;;;;;;;1.00;1.00;;;;;;;4.14;85.33;97839.25;6378596;22;20052;-91
2024/04/24 11:07:43;;;;;;;1.10;1.10;;;;;;;4.10;85.38;97825.91;6296109;22;20031;-91
2024/04/24 11:10:10;;;;;;;1.00;1.00;;;;;;;3.98;84.92;97835.09;6334468;22;19992;-92
2024/04/24 11:12:38;;;;;;;0.90;0.90;;;;;;;3.89;87.40;97835.63;6297445;22;20070;-92
2024/04/24 11:15:21;;;;;;;1.00;1.00;;;;;;;3.77;87.90;97836.00;6337835;22;20010;-92
2024/04/24 11:17:50;;;;;;;1.00;1.00;;;;;;;3.93;86.40;97831.34;6334699;22;20003;-92
2024/04/24 11:20:37;;;;;;;1.00;1.00;;;;;;;3.89;87.56;97825.06;6296232;22;20003;-91
2024/04/24 11:23:08;;;;;;;0.90;0.90;;;;;;;3.93;87.55;97816.44;6339198;22;20018;-91
2024/04/24 11:25:34;;;;;;;1.10;1.10;;;;;;;3.98;88.65;97824.56;6334768;22;20003;-92
2024/04/24 11:27:59;;;;;;;1.00;1.00;;;;;;;4.17;87.73;97820.88;6369747;22;20311;-91
2024/04/24 11:30:25;;;;;;;1.02;1.02;;;;;;;4.26;87.21;97813.31;6325819;22;19999;-92
2024/04/24 11:32:52;;;;;;;1.00;1.00;;;;;;;4.17;87.62;97811.25;6326691;22;20663;-91
2024/04/24 11:35:20;;;;;;;0.90;0.90;;;;;;;4.21;86.56;97805.22;6327372;22;20003;-91